Terminal Aerodrome Forecast
Issued by NWS

Home | Current Version | Previous Version | Text Only | Print | Product List | Glossary On
Versions: 1 2 3 4 5 6 7 8 9 10 11 12
000
FTUS43 KPAH 201100
TAFCGI
TAF
KCGI 201121Z 2012/2112 VRB03KT P6SM BKN250
     FM201700 18007KT P6SM SCT050 BKN250
     FM202300 19004KT P6SM SCT130 BKN250=

USA.gov is the U.S. government's official web portal to all federal, state and local government web resources and services.